createdAt,value
2018-01-22T00:00:47.067Z,0.00
2018-01-22T00:01:46.573Z,0.00
2018-01-22T00:03:38.653Z,0.00
2018-01-22T00:04:38.546Z,0.00
2018-01-22T00:06:30.546Z,0.00
2018-01-22T00:07:30.460Z,0.00
2018-01-22T00:09:22.446Z,0.00
2018-01-22T00:10:22.369Z,0.00
2018-01-22T00:12:14.361Z,0.00
2018-01-22T00:13:14.279Z,0.00
2018-01-22T00:15:06.294Z,0.00
2018-01-22T00:16:06.240Z,0.00
2018-01-22T00:17:58.247Z,0.00
2018-01-22T00:18:58.135Z,0.00
2018-01-22T00:20:50.204Z,0.00
2018-01-22T00:21:50.056Z,0.00
2018-01-22T00:23:42.441Z,0.00
2018-01-22T00:24:41.978Z,0.00
2018-01-22T00:26:34.081Z,0.00
2018-01-22T00:27:33.957Z,0.00
2018-01-22T00:29:25.969Z,0.00
2018-01-22T00:30:25.898Z,0.00
2018-01-22T00:32:17.906Z,0.00
2018-01-22T00:33:17.823Z,0.00
2018-01-22T00:35:09.801Z,0.00
2018-01-22T00:36:09.760Z,0.00
2018-01-22T00:38:01.734Z,0.00
2018-01-22T00:39:01.646Z,0.00
2018-01-22T00:40:53.673Z,0.00
2018-01-22T00:41:53.585Z,0.00
2018-01-22T00:43:45.627Z,0.00
2018-01-22T00:44:45.531Z,0.00
2018-01-22T00:46:37.477Z,0.00
2018-01-22T00:47:37.453Z,0.00
2018-01-22T00:49:29.381Z,0.00
2018-01-22T00:50:29.333Z,0.00
2018-01-22T00:52:21.343Z,0.00
2018-01-22T00:53:21.254Z,0.00
2018-01-22T00:55:13.224Z,0.00
2018-01-22T00:56:13.154Z,0.00
2018-01-22T00:58:05.198Z,0.00
2018-01-22T00:59:05.107Z,0.00
2018-01-22T01:00:57.281Z,0.00
2018-01-22T01:01:57.134Z,0.00
2018-01-22T01:03:49.237Z,0.00
2018-01-22T01:04:49.066Z,0.00
2018-01-22T01:06:41.038Z,0.00
2018-01-22T01:07:40.967Z,0.00
2018-01-22T01:09:33.039Z,0.00
2018-01-22T01:10:33.015Z,0.00
2018-01-22T01:12:25.022Z,0.00
2018-01-22T01:13:24.845Z,0.00
2018-01-22T01:15:16.820Z,0.00
2018-01-22T01:16:16.745Z,0.00
2018-01-22T01:18:09.186Z,0.00
2018-01-22T01:19:08.653Z,0.00
2018-01-22T01:21:00.656Z,0.00
2018-01-22T01:22:00.580Z,0.00
2018-01-22T01:23:52.573Z,0.00
2018-01-22T01:24:52.520Z,0.00
2018-01-22T01:26:45.018Z,0.00
2018-01-22T01:27:44.863Z,0.00
2018-01-22T01:29:36.909Z,0.00
2018-01-22T01:30:36.794Z,0.00
2018-01-22T01:32:28.758Z,0.00
2018-01-22T01:33:28.684Z,0.00
2018-01-22T01:35:20.734Z,0.00
2018-01-22T01:36:20.693Z,0.00
2018-01-22T01:38:12.682Z,0.00
2018-01-22T01:39:12.607Z,0.00
2018-01-22T01:41:04.656Z,0.00
2018-01-22T01:42:04.653Z,0.00
2018-01-22T01:43:56.618Z,0.00
2018-01-22T01:44:56.562Z,0.00
2018-01-22T01:46:48.508Z,0.00
2018-01-22T01:47:48.429Z,0.00
2018-01-22T01:49:40.454Z,0.00
2018-01-22T01:50:40.328Z,0.00
2018-01-22T01:52:32.359Z,0.00
2018-01-22T01:53:32.306Z,0.00
2018-01-22T01:55:24.355Z,0.00
2018-01-22T01:56:24.192Z,0.00
2018-01-22T01:58:16.214Z,0.00
2018-01-22T01:59:16.108Z,0.00
2018-01-22T02:01:08.142Z,0.00
2018-01-22T02:02:08.064Z,0.00
2018-01-22T02:04:00.037Z,0.00
2018-01-22T02:04:59.970Z,0.00
2018-01-22T02:06:51.984Z,0.00
2018-01-22T02:07:51.902Z,0.00
2018-01-22T02:09:43.879Z,0.00
2018-01-22T02:10:43.836Z,0.00
2018-01-22T02:12:35.802Z,0.00
2018-01-22T02:13:35.722Z,0.00
2018-01-22T02:15:27.720Z,0.00
2018-01-22T02:16:27.626Z,0.00
2018-01-22T02:18:19.612Z,0.00
2018-01-22T02:19:19.652Z,0.00
2018-01-22T02:21:11.515Z,0.00
2018-01-22T02:22:11.455Z,0.00
2018-01-22T02:24:03.478Z,0.00
2018-01-22T02:25:03.409Z,0.00
2018-01-22T02:26:55.449Z,0.00
2018-01-22T02:27:55.354Z,0.00
2018-01-22T02:29:47.362Z,0.00
2018-01-22T02:30:47.254Z,0.00
2018-01-22T02:32:39.234Z,0.00
2018-01-22T02:33:39.156Z,0.00
2018-01-22T02:35:31.129Z,0.00
2018-01-22T02:36:31.057Z,0.00
2018-01-22T02:38:23.069Z,0.00
2018-01-22T02:39:22.990Z,0.00
2018-01-22T02:41:15.024Z,0.00
2018-01-22T02:42:15.143Z,0.00
2018-01-22T02:44:06.962Z,0.00
2018-01-22T02:45:06.885Z,0.00
2018-01-22T02:46:59.251Z,0.00
2018-01-22T02:47:58.816Z,0.00
2018-01-22T02:49:50.776Z,0.00
2018-01-22T02:50:50.754Z,0.00
2018-01-22T02:52:42.752Z,0.00
2018-01-22T02:53:42.670Z,0.00
2018-01-22T02:55:34.639Z,0.00
2018-01-22T02:56:34.568Z,0.00
2018-01-22T02:58:26.577Z,0.00
2018-01-22T02:59:26.496Z,0.00
2018-01-22T03:01:18.552Z,0.00
2018-01-22T03:02:18.444Z,0.00
2018-01-22T03:04:11.090Z,0.00
2018-01-22T03:05:10.448Z,0.00
2018-01-22T03:07:02.485Z,0.00
2018-01-22T03:08:02.461Z,0.00
2018-01-22T03:09:54.449Z,0.00
2018-01-22T03:10:54.326Z,0.00
2018-01-22T03:12:46.359Z,0.00
2018-01-22T03:13:46.296Z,0.00
2018-01-22T03:15:38.297Z,0.00
2018-01-22T03:16:38.254Z,0.00
2018-01-22T03:18:30.237Z,0.00
2018-01-22T03:19:30.119Z,0.00
2018-01-22T03:21:22.501Z,0.00
2018-01-22T03:22:22.223Z,0.00
2018-01-22T03:24:14.037Z,0.00
2018-01-22T03:25:13.959Z,0.00
2018-01-22T03:27:05.999Z,0.00
2018-01-22T03:28:06.040Z,0.00
2018-01-22T03:29:57.973Z,0.00
2018-01-22T03:30:57.894Z,0.00
2018-01-22T03:32:50.355Z,0.00
2018-01-22T03:33:49.944Z,0.00
2018-01-22T03:35:41.915Z,0.00
2018-01-22T03:36:41.851Z,0.00
2018-01-22T03:38:33.868Z,0.00
2018-01-22T03:39:33.799Z,0.00
2018-01-22T03:41:25.783Z,0.00
2018-01-22T03:42:25.716Z,0.00
2018-01-22T03:44:17.745Z,0.00
2018-01-22T03:45:17.598Z,0.00
2018-01-22T03:47:09.574Z,0.00
2018-01-22T03:48:09.546Z,0.00
2018-01-22T03:50:01.549Z,0.00
2018-01-22T03:51:01.432Z,0.00
2018-01-22T03:52:53.402Z,0.00
2018-01-22T03:53:53.339Z,0.00
2018-01-22T03:55:45.733Z,0.00
2018-01-22T03:56:45.293Z,0.00
2018-01-22T03:58:37.349Z,0.00
2018-01-22T03:59:37.234Z,0.00
2018-01-22T04:01:29.223Z,0.00
2018-01-22T04:02:29.144Z,0.00
2018-01-22T04:04:21.178Z,0.00
2018-01-22T04:05:21.156Z,0.00
2018-01-22T04:07:13.207Z,0.00
2018-01-22T04:08:13.040Z,0.00
2018-01-22T04:10:05.025Z,0.00
2018-01-22T04:11:04.965Z,0.00
2018-01-22T04:12:56.975Z,0.00
2018-01-22T04:13:56.894Z,0.00
2018-01-22T04:15:49.014Z,0.00
2018-01-22T04:16:48.835Z,0.00
2018-01-22T04:18:40.883Z,0.00
2018-01-22T04:19:40.814Z,0.00
2018-01-22T04:21:32.897Z,0.00
2018-01-22T04:22:32.760Z,0.00
2018-01-22T04:24:24.905Z,0.00
2018-01-22T04:25:24.865Z,0.00
2018-01-22T04:27:16.792Z,0.00
2018-01-22T04:28:16.714Z,0.00
2018-01-22T04:30:08.689Z,0.00
2018-01-22T04:31:08.647Z,0.00
2018-01-22T04:33:00.719Z,0.00
2018-01-22T04:34:00.702Z,0.00
2018-01-22T04:35:52.691Z,0.00
2018-01-22T04:36:52.599Z,0.00
2018-01-22T04:38:44.603Z,0.00
2018-01-22T04:39:44.503Z,0.00
2018-01-22T04:41:36.507Z,0.00
2018-01-22T04:42:36.428Z,0.00
2018-01-22T04:44:30.322Z,0.00
2018-01-22T04:45:28.343Z,0.00
2018-01-22T04:47:20.395Z,0.00
2018-01-22T04:48:20.327Z,0.00
2018-01-22T04:50:12.280Z,0.00
2018-01-22T04:51:12.284Z,0.00
2018-01-22T04:53:04.227Z,0.00
2018-01-22T04:54:04.185Z,0.00
2018-01-22T04:55:56.104Z,0.00
2018-01-22T04:56:56.030Z,0.00
2018-01-22T04:58:48.017Z,0.00
2018-01-22T04:59:47.935Z,0.00
2018-01-22T05:01:39.939Z,0.00
2018-01-22T05:02:40.011Z,0.00
2018-01-22T05:04:31.846Z,0.00
2018-01-22T05:05:31.770Z,0.00
2018-01-22T05:07:24.054Z,0.00
2018-01-22T05:08:23.776Z,0.00
2018-01-22T05:10:15.817Z,0.00
2018-01-22T05:11:15.674Z,0.00
2018-01-22T05:13:07.673Z,0.00
2018-01-22T05:14:07.588Z,0.00
2018-01-22T05:15:59.599Z,0.00
2018-01-22T05:16:59.523Z,0.00
2018-01-22T05:18:51.608Z,0.00
2018-01-22T05:19:51.450Z,0.00
2018-01-22T05:21:43.460Z,0.00
2018-01-22T05:22:43.355Z,0.00
2018-01-22T05:24:35.411Z,0.00
2018-01-22T05:25:35.302Z,0.00
2018-01-22T05:27:27.284Z,0.00
2018-01-22T05:28:27.203Z,0.00
2018-01-22T05:30:19.189Z,0.00
2018-01-22T05:31:19.153Z,0.00
2018-01-22T05:33:11.279Z,0.00
2018-01-22T05:34:11.111Z,0.00
2018-01-22T05:36:03.156Z,0.00
2018-01-22T05:37:03.039Z,0.00
2018-01-22T05:38:55.051Z,0.00
2018-01-22T05:39:54.952Z,0.00
2018-01-22T05:41:47.043Z,0.00
2018-01-22T05:42:46.974Z,0.00
2018-01-22T05:44:38.968Z,0.00
2018-01-22T05:45:38.888Z,0.00
2018-01-22T05:47:30.918Z,0.00
2018-01-22T05:48:30.851Z,0.00
2018-01-22T05:50:22.848Z,0.00
2018-01-22T05:51:22.820Z,0.00
2018-01-22T05:53:14.888Z,0.00
2018-01-22T05:54:14.741Z,0.00
2018-01-22T05:56:06.739Z,0.00
2018-01-22T05:57:06.616Z,0.00
2018-01-22T05:58:58.706Z,0.00
2018-01-22T05:59:58.558Z,0.00
2018-01-22T06:01:50.547Z,0.00
2018-01-22T06:02:50.446Z,0.00
2018-01-22T06:04:42.437Z,0.00
2018-01-22T06:05:42.421Z,0.00
2018-01-22T06:07:34.713Z,0.00
2018-01-22T06:08:34.308Z,0.00
2018-01-22T06:10:26.291Z,0.00
2018-01-22T06:11:26.212Z,0.00
2018-01-22T06:13:18.597Z,0.00
2018-01-22T06:14:18.176Z,0.00
2018-01-22T06:16:10.186Z,0.00
2018-01-22T06:17:10.079Z,0.00
2018-01-22T06:19:02.093Z,0.00
2018-01-22T06:20:02.219Z,0.00
2018-01-22T06:21:53.978Z,0.00
2018-01-22T06:22:53.915Z,0.00
2018-01-22T06:24:45.902Z,0.00
2018-01-22T06:25:45.821Z,0.00
2018-01-22T06:27:37.826Z,0.00
2018-01-22T06:28:37.771Z,0.00
2018-01-22T06:30:30.121Z,0.00
2018-01-22T06:31:29.725Z,0.00
2018-01-22T06:33:21.697Z,0.00
2018-01-22T06:34:21.625Z,0.00
2018-01-22T06:36:13.832Z,0.00
2018-01-22T06:37:13.633Z,0.00
2018-01-22T06:39:05.575Z,0.00
2018-01-22T06:40:05.476Z,0.00
2018-01-22T06:41:57.534Z,0.00
2018-01-22T06:42:57.425Z,0.00
2018-01-22T06:44:49.390Z,0.00
2018-01-22T06:45:49.379Z,0.00
2018-01-22T06:47:41.335Z,0.00
2018-01-22T06:48:41.244Z,0.00
2018-01-22T06:50:33.363Z,0.00
2018-01-22T06:51:33.336Z,0.00
2018-01-22T06:53:25.171Z,5.63
2018-01-22T06:54:25.069Z,5.63
2018-01-22T06:56:17.065Z,5.63
2018-01-22T06:57:16.989Z,5.63
2018-01-22T06:59:09.024Z,5.63
2018-01-22T07:00:08.945Z,5.63
2018-01-22T07:02:00.936Z,11.25
2018-01-22T07:03:00.846Z,11.25
2018-01-22T07:04:52.920Z,11.25
2018-01-22T07:05:52.753Z,11.25
2018-01-22T07:07:44.772Z,11.25
2018-01-22T07:08:44.665Z,11.25
2018-01-22T07:10:36.704Z,11.25
2018-01-22T07:11:36.612Z,11.25
2018-01-22T07:13:28.679Z,11.25
2018-01-22T07:14:28.586Z,16.88
2018-01-22T07:16:20.571Z,16.88
2018-01-22T07:17:20.499Z,16.88
2018-01-22T07:19:12.606Z,22.50
2018-01-22T07:20:12.516Z,16.88
2018-01-22T07:22:04.595Z,22.50
2018-01-22T07:23:04.545Z,22.50
2018-01-22T07:24:56.415Z,22.50
2018-01-22T07:25:56.332Z,28.13
2018-01-22T07:27:48.411Z,28.13
2018-01-22T07:28:48.291Z,28.13
2018-01-22T07:30:40.275Z,28.13
2018-01-22T07:31:40.204Z,28.13
2018-01-22T07:33:32.228Z,33.75
2018-01-22T07:34:32.111Z,39.38
2018-01-22T07:36:24.115Z,45.00
2018-01-22T07:37:24.030Z,50.63
2018-01-22T07:39:16.032Z,50.63
2018-01-22T07:40:15.946Z,50.63
2018-01-22T07:42:07.910Z,45.00
2018-01-22T07:43:07.840Z,45.00
2018-01-22T07:44:59.875Z,33.75
2018-01-22T07:45:59.766Z,33.75
2018-01-22T07:47:51.754Z,39.38
2018-01-22T07:48:51.683Z,45.00
2018-01-22T07:50:43.732Z,45.00
2018-01-22T07:51:43.621Z,45.00
2018-01-22T07:53:35.596Z,45.00
2018-01-22T07:54:35.514Z,45.00
2018-01-22T07:56:27.491Z,50.63
2018-01-22T07:57:27.456Z,50.63
2018-01-22T07:59:19.643Z,56.25
2018-01-22T08:00:19.434Z,56.25
2018-01-22T08:02:11.453Z,61.88
2018-01-22T08:03:11.364Z,67.50
2018-01-22T08:05:03.367Z,73.13
2018-01-22T08:06:03.299Z,78.75
2018-01-22T08:07:55.284Z,90.00
2018-01-22T08:08:55.218Z,90.00
2018-01-22T08:10:47.204Z,95.63
2018-01-22T08:11:47.170Z,95.63
2018-01-22T08:13:39.121Z,95.63
2018-01-22T08:14:39.052Z,95.63
2018-01-22T08:16:31.043Z,95.63
2018-01-22T08:17:30.962Z,95.63
2018-01-22T08:19:22.985Z,95.63
2018-01-22T08:20:22.890Z,90.00
2018-01-22T08:22:14.899Z,95.63
2018-01-22T08:23:14.815Z,101.25
2018-01-22T08:25:06.809Z,112.50
2018-01-22T08:26:06.729Z,112.50
2018-01-22T08:27:58.709Z,118.13
2018-01-22T08:28:58.633Z,129.38
2018-01-22T08:30:50.626Z,151.88
2018-01-22T08:31:50.545Z,151.88
2018-01-22T08:33:42.589Z,146.25
2018-01-22T08:34:42.515Z,146.25
2018-01-22T08:36:34.519Z,151.88
2018-01-22T08:37:34.437Z,163.13
2018-01-22T08:39:26.419Z,163.13
2018-01-22T08:40:26.353Z,168.75
2018-01-22T08:42:18.379Z,168.75
2018-01-22T08:43:18.296Z,174.38
2018-01-22T08:45:10.309Z,174.38
2018-01-22T08:46:10.229Z,174.38
2018-01-22T08:48:02.240Z,185.63
2018-01-22T08:49:02.139Z,191.25
2018-01-22T08:50:54.133Z,213.75
2018-01-22T08:51:54.054Z,230.63
2018-01-22T08:53:46.040Z,241.88
2018-01-22T08:54:45.970Z,247.50
2018-01-22T08:56:37.988Z,247.50
2018-01-22T08:57:37.897Z,258.75
2018-01-22T08:59:29.951Z,292.50
2018-01-22T09:00:30.001Z,298.13
2018-01-22T09:02:21.846Z,309.38
2018-01-22T09:03:21.736Z,309.38
2018-01-22T09:05:13.731Z,337.50
2018-01-22T09:06:13.653Z,360.00
2018-01-22T09:08:05.652Z,388.13
2018-01-22T09:09:05.567Z,444.38
2018-01-22T09:10:57.545Z,562.50
2018-01-22T09:11:57.476Z,759.38
2018-01-22T09:13:49.551Z,787.50
2018-01-22T09:14:49.541Z,849.38
2018-01-22T09:16:41.467Z,798.75
2018-01-22T09:17:41.374Z,900.00
2018-01-22T09:19:33.358Z,905.63
2018-01-22T09:20:33.287Z,826.88
2018-01-22T09:22:25.322Z,781.88
2018-01-22T09:23:25.239Z,753.75
2018-01-22T09:25:17.230Z,433.13
2018-01-22T09:26:17.163Z,641.25
2018-01-22T09:28:09.172Z,478.13
2018-01-22T09:29:09.080Z,360.00
2018-01-22T09:31:01.070Z,382.50
2018-01-22T09:32:00.997Z,371.25
2018-01-22T09:33:52.999Z,371.25
2018-01-22T09:34:52.951Z,388.13
2018-01-22T09:36:44.901Z,433.13
2018-01-22T09:37:44.832Z,478.13
2018-01-22T09:39:36.862Z,753.75
2018-01-22T09:40:36.780Z,590.63
2018-01-22T09:42:28.783Z,562.50
2018-01-22T09:43:28.786Z,483.75
2018-01-22T09:45:20.692Z,483.75
2018-01-22T09:46:20.626Z,500.63
2018-01-22T09:48:12.656Z,669.38
2018-01-22T09:49:12.601Z,534.38
2018-01-22T09:51:04.563Z,596.25
2018-01-22T09:52:04.491Z,703.13
2018-01-22T09:53:56.542Z,506.25
2018-01-22T09:54:56.457Z,500.63
2018-01-22T09:56:48.483Z,483.75
2018-01-22T09:57:48.450Z,455.63
2018-01-22T09:59:40.485Z,421.88
2018-01-22T10:00:40.338Z,427.50
2018-01-22T10:02:32.376Z,376.88
2018-01-22T10:03:32.260Z,365.63
2018-01-22T10:05:24.349Z,337.50
2018-01-22T10:06:24.328Z,343.13
2018-01-22T10:08:16.249Z,331.88
2018-01-22T10:09:16.676Z,337.50
2018-01-22T10:11:08.218Z,337.50
2018-01-22T10:12:08.100Z,331.88
2018-01-22T10:14:00.101Z,326.25
2018-01-22T10:15:00.045Z,331.88
2018-01-22T10:16:52.018Z,348.75
2018-01-22T10:17:51.952Z,382.50
2018-01-22T10:19:44.067Z,354.38
2018-01-22T10:20:44.088Z,388.13
2018-01-22T10:22:35.990Z,478.13
2018-01-22T10:23:35.917Z,461.25
2018-01-22T10:25:27.922Z,421.88
2018-01-22T10:26:27.843Z,410.63
2018-01-22T10:28:19.860Z,376.88
2018-01-22T10:29:19.790Z,365.63
2018-01-22T10:31:11.785Z,360.00
2018-01-22T10:32:11.705Z,343.13
2018-01-22T10:34:03.687Z,326.25
2018-01-22T10:35:03.698Z,337.50
2018-01-22T10:36:55.616Z,315.00
2018-01-22T10:37:55.538Z,298.13
2018-01-22T10:39:47.525Z,303.75
2018-01-22T10:40:47.462Z,298.13
2018-01-22T10:42:39.512Z,292.50
2018-01-22T10:43:39.418Z,292.50
2018-01-22T10:45:31.435Z,275.63
2018-01-22T10:46:31.353Z,270.00
2018-01-22T10:48:23.343Z,253.13
2018-01-22T10:49:23.304Z,247.50
2018-01-22T10:51:15.875Z,225.00
2018-01-22T10:52:15.194Z,225.00
2018-01-22T10:54:07.187Z,213.75
2018-01-22T10:55:07.121Z,208.13
2018-01-22T10:56:59.119Z,208.13
2018-01-22T10:57:59.041Z,202.50
2018-01-22T10:59:51.080Z,202.50
2018-01-22T11:00:50.963Z,208.13
2018-01-22T11:02:42.972Z,225.00
2018-01-22T11:03:42.885Z,241.88
2018-01-22T11:05:34.889Z,258.75
2018-01-22T11:06:34.814Z,264.38
2018-01-22T11:08:26.803Z,258.75
2018-01-22T11:09:26.720Z,253.13
2018-01-22T11:11:18.707Z,236.25
2018-01-22T11:12:18.636Z,230.63
2018-01-22T11:14:10.635Z,225.00
2018-01-22T11:15:10.566Z,219.38
2018-01-22T11:17:02.535Z,219.38
2018-01-22T11:18:02.497Z,219.38
2018-01-22T11:19:54.461Z,219.38
2018-01-22T11:20:54.376Z,219.38
2018-01-22T11:22:46.375Z,213.75
2018-01-22T11:23:46.325Z,213.75
2018-01-22T11:25:38.293Z,219.38
2018-01-22T11:26:38.210Z,225.00
2018-01-22T11:28:30.209Z,236.25
2018-01-22T11:29:30.171Z,247.50
2018-01-22T11:31:22.118Z,264.38
2018-01-22T11:32:22.052Z,264.38
2018-01-22T11:34:14.049Z,253.13
2018-01-22T11:35:13.961Z,241.88
2018-01-22T11:37:05.954Z,241.88
2018-01-22T11:38:05.886Z,241.88
2018-01-22T11:39:57.899Z,241.88
2018-01-22T11:40:57.812Z,236.25
2018-01-22T11:42:49.829Z,230.63
2018-01-22T11:43:50.241Z,236.25
2018-01-22T11:45:41.768Z,236.25
2018-01-22T11:46:41.684Z,236.25
2018-01-22T11:48:33.713Z,225.00
2018-01-22T11:49:33.640Z,219.38
2018-01-22T11:51:25.650Z,219.38
2018-01-22T11:52:25.563Z,219.38
2018-01-22T11:54:17.564Z,241.88
2018-01-22T11:55:17.495Z,247.50
2018-01-22T11:57:09.512Z,253.13
2018-01-22T11:58:09.404Z,247.50
2018-01-22T12:00:01.411Z,230.63
2018-01-22T12:01:01.323Z,219.38
2018-01-22T12:02:53.359Z,213.75
2018-01-22T12:03:53.276Z,213.75
2018-01-22T12:05:45.564Z,202.50
2018-01-22T12:06:45.547Z,202.50
2018-01-22T12:08:37.976Z,208.13
2018-01-22T12:09:37.685Z,213.75
2018-01-22T12:11:29.714Z,213.75
2018-01-22T12:12:29.669Z,208.13
2018-01-22T12:14:21.653Z,196.88
2018-01-22T12:15:21.578Z,191.25
2018-01-22T12:17:13.596Z,191.25
2018-01-22T12:18:13.597Z,185.63
2018-01-22T12:20:05.537Z,191.25
2018-01-22T12:21:05.435Z,191.25
2018-01-22T12:22:57.452Z,185.63
2018-01-22T12:23:57.382Z,180.00
2018-01-22T12:25:49.401Z,163.13
2018-01-22T12:26:49.336Z,163.13
2018-01-22T12:28:41.332Z,174.38
2018-01-22T12:29:41.247Z,180.00
2018-01-22T12:31:33.258Z,196.88
2018-01-22T12:32:33.177Z,202.50
2018-01-22T12:34:25.166Z,208.13
2018-01-22T12:35:25.162Z,202.50
2018-01-22T12:37:17.148Z,202.50
2018-01-22T12:38:17.070Z,208.13
2018-01-22T12:40:09.076Z,202.50
2018-01-22T12:41:09.003Z,202.50
2018-01-22T12:43:01.024Z,196.88
2018-01-22T12:44:00.926Z,191.25
2018-01-22T12:45:52.972Z,191.25
2018-01-22T12:46:52.845Z,196.88
2018-01-22T12:48:44.955Z,196.88
2018-01-22T12:49:44.805Z,191.25
2018-01-22T12:51:36.846Z,196.88
2018-01-22T12:52:36.760Z,202.50
2018-01-22T12:54:28.761Z,213.75
2018-01-22T12:55:28.679Z,219.38
2018-01-22T12:57:20.715Z,241.88
2018-01-22T12:58:20.636Z,264.38
2018-01-22T13:00:12.642Z,292.50
2018-01-22T13:01:12.575Z,298.13
2018-01-22T13:03:04.630Z,298.13
2018-01-22T13:04:04.575Z,292.50
2018-01-22T13:05:56.549Z,292.50
2018-01-22T13:06:56.468Z,298.13
2018-01-22T13:08:48.484Z,298.13
2018-01-22T13:09:48.395Z,303.75
2018-01-22T13:11:40.416Z,315.00
2018-01-22T13:12:40.323Z,320.63
2018-01-22T13:14:32.344Z,331.88
2018-01-22T13:15:32.269Z,331.88
2018-01-22T13:17:24.340Z,320.63
2018-01-22T13:18:24.286Z,309.38
2018-01-22T13:20:16.253Z,303.75
2018-01-22T13:21:16.171Z,303.75
2018-01-22T13:23:08.195Z,298.13
2018-01-22T13:24:08.128Z,286.88
2018-01-22T13:26:00.094Z,258.75
2018-01-22T13:27:00.000Z,253.13
2018-01-22T13:28:52.029Z,230.63
2018-01-22T13:29:51.948Z,230.63
2018-01-22T13:31:43.943Z,247.50
2018-01-22T13:32:43.867Z,241.88
2018-01-22T13:34:35.883Z,230.63
2018-01-22T13:35:35.796Z,230.63
2018-01-22T13:37:27.843Z,236.25
2018-01-22T13:38:27.740Z,241.88
2018-01-22T13:40:19.744Z,247.50
2018-01-22T13:41:19.670Z,253.13
2018-01-22T13:43:11.683Z,241.88
2018-01-22T13:44:11.606Z,230.63
2018-01-22T13:46:03.734Z,219.38
2018-01-22T13:47:03.532Z,208.13
2018-01-22T13:48:55.577Z,185.63
2018-01-22T13:49:55.499Z,174.38
2018-01-22T13:51:47.483Z,151.88
2018-01-22T13:52:47.413Z,140.63
2018-01-22T13:54:39.431Z,140.63
2018-01-22T13:55:39.314Z,140.63
2018-01-22T13:57:31.319Z,140.63
2018-01-22T13:58:31.247Z,135.00
2018-01-22T14:00:23.246Z,135.00
2018-01-22T14:01:23.151Z,135.00
2018-01-22T14:03:15.138Z,140.63
2018-01-22T14:04:15.068Z,140.63
2018-01-22T14:06:07.104Z,129.38
2018-01-22T14:07:07.050Z,129.38
2018-01-22T14:08:59.036Z,112.50
2018-01-22T14:09:59.017Z,106.88
2018-01-22T14:11:50.975Z,101.25
2018-01-22T14:12:50.888Z,101.25
2018-01-22T14:14:42.886Z,101.25
2018-01-22T14:15:42.857Z,101.25
2018-01-22T14:17:34.820Z,106.88
2018-01-22T14:18:34.741Z,106.88
2018-01-22T14:20:26.793Z,106.88
2018-01-22T14:21:26.735Z,106.88
2018-01-22T14:23:18.700Z,101.25
2018-01-22T14:24:18.616Z,95.63
2018-01-22T14:26:10.643Z,84.38
2018-01-22T14:27:10.555Z,78.75
2018-01-22T14:29:02.578Z,73.13
2018-01-22T14:30:02.506Z,73.13
2018-01-22T14:31:54.513Z,67.50
2018-01-22T14:32:54.505Z,67.50
2018-01-22T14:34:46.611Z,67.50
2018-01-22T14:35:46.561Z,67.50
2018-01-22T14:37:38.548Z,73.13
2018-01-22T14:38:38.469Z,73.13
2018-01-22T14:40:30.564Z,67.50
2018-01-22T14:41:30.580Z,67.50
2018-01-22T14:43:22.537Z,61.88
2018-01-22T14:44:22.397Z,56.25
2018-01-22T14:46:14.860Z,50.63
2018-01-22T14:47:14.371Z,50.63
2018-01-22T14:49:06.311Z,45.00
2018-01-22T14:50:06.230Z,45.00
2018-01-22T14:51:58.396Z,39.38
2018-01-22T14:52:58.297Z,39.38
2018-01-22T14:54:50.395Z,33.75
2018-01-22T14:55:50.387Z,33.75
2018-01-22T14:57:42.342Z,33.75
2018-01-22T14:58:42.350Z,28.13
2018-01-22T15:00:34.256Z,28.13
2018-01-22T15:01:34.177Z,33.75
2018-01-22T15:03:26.182Z,33.75
2018-01-22T15:04:26.089Z,33.75
2018-01-22T15:06:18.112Z,33.75
2018-01-22T15:07:18.035Z,33.75
2018-01-22T15:09:10.229Z,33.75
2018-01-22T15:10:09.958Z,33.75
2018-01-22T15:12:01.973Z,33.75
2018-01-22T15:13:01.892Z,33.75
2018-01-22T15:14:53.960Z,33.75
2018-01-22T15:15:53.875Z,33.75
2018-01-22T15:17:45.924Z,33.75
2018-01-22T15:18:45.871Z,28.13
2018-01-22T15:20:37.868Z,28.13
2018-01-22T15:21:37.801Z,22.50
2018-01-22T15:23:29.815Z,16.88
2018-01-22T15:24:29.719Z,16.88
2018-01-22T15:26:21.712Z,16.88
2018-01-22T15:27:21.671Z,11.25
2018-01-22T15:29:13.655Z,11.25
2018-01-22T15:30:13.556Z,11.25
2018-01-22T15:32:05.557Z,5.63
2018-01-22T15:33:05.486Z,5.63
2018-01-22T15:34:57.488Z,5.63
2018-01-22T15:35:57.409Z,5.63
2018-01-22T15:37:49.404Z,5.63
2018-01-22T15:38:49.316Z,5.63
2018-01-22T15:40:41.324Z,0.00
2018-01-22T15:41:41.252Z,0.00
2018-01-22T15:43:33.281Z,0.00
2018-01-22T15:44:33.186Z,0.00
2018-01-22T15:46:25.330Z,0.00
2018-01-22T15:47:25.153Z,0.00
2018-01-22T15:49:17.130Z,0.00
2018-01-22T15:50:17.052Z,0.00
2018-01-22T15:52:09.042Z,0.00
2018-01-22T15:53:08.970Z,0.00
2018-01-22T15:55:01.040Z,0.00
2018-01-22T15:56:00.929Z,0.00
2018-01-22T15:57:52.937Z,0.00
2018-01-22T15:58:52.859Z,0.00
2018-01-22T16:00:44.865Z,0.00
2018-01-22T16:01:44.771Z,0.00
2018-01-22T16:03:36.814Z,0.00
2018-01-22T16:04:36.690Z,0.00
2018-01-22T16:06:28.698Z,0.00
2018-01-22T16:07:28.619Z,0.00
2018-01-22T16:09:20.608Z,0.00
2018-01-22T16:10:20.525Z,0.00
2018-01-22T16:12:12.535Z,0.00
2018-01-22T16:13:12.461Z,0.00
2018-01-22T16:15:04.837Z,0.00
2018-01-22T16:16:04.408Z,0.00
2018-01-22T16:17:56.471Z,0.00
2018-01-22T16:18:56.404Z,0.00
2018-01-22T16:20:48.413Z,0.00
2018-01-22T16:21:48.336Z,0.00
2018-01-22T16:23:40.267Z,0.00
2018-01-22T16:24:40.204Z,0.00
2018-01-22T16:26:32.211Z,0.00
2018-01-22T16:27:32.123Z,0.00
2018-01-22T16:29:24.124Z,0.00
2018-01-22T16:30:24.049Z,0.00
2018-01-22T16:32:16.079Z,0.00
2018-01-22T16:33:15.948Z,0.00
2018-01-22T16:35:07.970Z,0.00
2018-01-22T16:36:07.976Z,0.00
2018-01-22T16:37:59.998Z,0.00
2018-01-22T16:38:59.898Z,0.00
2018-01-22T16:40:52.299Z,0.00
2018-01-22T16:41:51.820Z,0.00
2018-01-22T16:43:43.764Z,0.00
2018-01-22T16:44:43.696Z,0.00
2018-01-22T16:46:35.764Z,0.00
2018-01-22T16:47:35.752Z,0.00
2018-01-22T16:49:27.656Z,0.00
2018-01-22T16:50:27.586Z,0.00
2018-01-22T16:52:19.653Z,0.00
2018-01-22T16:53:19.566Z,0.00
2018-01-22T16:55:11.542Z,0.00
2018-01-22T16:56:11.467Z,0.00
2018-01-22T16:58:03.457Z,0.00
2018-01-22T16:59:03.379Z,0.00
2018-01-22T17:00:55.359Z,0.00
2018-01-22T17:01:55.285Z,0.00
2018-01-22T17:03:47.324Z,0.00
2018-01-22T17:04:47.240Z,0.00
2018-01-22T17:06:39.292Z,0.00
2018-01-22T17:07:39.309Z,0.00
2018-01-22T17:09:31.254Z,0.00
2018-01-22T17:10:31.125Z,0.00
2018-01-22T17:12:23.226Z,0.00
2018-01-22T17:13:23.163Z,0.00
2018-01-22T17:15:15.203Z,0.00
2018-01-22T17:16:15.047Z,0.00
2018-01-22T17:18:07.065Z,0.00
2018-01-22T17:19:06.985Z,0.00
2018-01-22T17:20:58.972Z,0.00
2018-01-22T17:21:58.899Z,0.00
2018-01-22T17:23:50.928Z,0.00
2018-01-22T17:24:50.833Z,0.00
2018-01-22T17:26:42.850Z,0.00
2018-01-22T17:27:42.748Z,0.00
2018-01-22T17:29:34.756Z,0.00
2018-01-22T17:30:34.700Z,0.00
2018-01-22T17:32:26.672Z,0.00
2018-01-22T17:33:26.597Z,0.00
2018-01-22T17:35:18.647Z,0.00
2018-01-22T17:36:18.584Z,0.00
2018-01-22T17:38:10.641Z,0.00
2018-01-22T17:39:10.503Z,0.00
2018-01-22T17:41:02.508Z,0.00
2018-01-22T17:42:02.401Z,0.00
2018-01-22T17:43:54.427Z,0.00
2018-01-22T17:44:54.342Z,0.00
2018-01-22T17:46:46.327Z,0.00
2018-01-22T17:47:46.246Z,0.00
2018-01-22T17:49:38.239Z,0.00
2018-01-22T17:50:38.233Z,0.00
2018-01-22T17:52:30.237Z,0.00
2018-01-22T17:53:30.112Z,0.00
2018-01-22T17:55:22.199Z,0.00
2018-01-22T17:56:22.092Z,0.00
2018-01-22T17:58:14.163Z,0.00
2018-01-22T17:59:14.093Z,0.00
2018-01-22T18:01:07.487Z,0.00
2018-01-22T18:02:06.028Z,0.00
2018-01-22T18:03:58.074Z,0.00
2018-01-22T18:04:58.043Z,0.00
2018-01-22T18:06:49.961Z,0.00
2018-01-22T18:07:49.890Z,0.00
2018-01-22T18:09:41.895Z,0.00
2018-01-22T18:10:41.825Z,0.00
2018-01-22T18:12:33.814Z,0.00
2018-01-22T18:13:33.720Z,0.00
2018-01-22T18:15:25.778Z,0.00
2018-01-22T18:16:25.643Z,0.00
2018-01-22T18:18:17.630Z,0.00
2018-01-22T18:19:17.568Z,0.00
2018-01-22T18:21:09.563Z,0.00
2018-01-22T18:22:09.471Z,0.00
2018-01-22T18:24:01.500Z,0.00
2018-01-22T18:25:01.412Z,0.00
2018-01-22T18:26:53.470Z,0.00
2018-01-22T18:27:53.328Z,0.00
2018-01-22T18:29:45.340Z,0.00
2018-01-22T18:30:45.272Z,0.00
2018-01-22T18:32:37.304Z,0.00
2018-01-22T18:33:37.202Z,0.00
2018-01-22T18:35:29.656Z,0.00